sensor_id;sensor_type;location;lat;lon;timestamp;P1;durP1;ratioP1;P2;durP2;ratioP2
9807;SDS011;4943;52.550;13.462;2023-07-13T00:01:19;558.83;;;511.93;;
9807;SDS011;4943;52.550;13.462;2023-07-13T00:03:48;558.20;;;511.17;;
9807;SDS011;4943;52.550;13.462;2023-07-13T00:06:16;530.37;;;484.20;;
9807;SDS011;4943;52.550;13.462;2023-07-13T00:08:47;546.43;;;499.93;;
9807;SDS011;4943;52.550;13.462;2023-07-13T00:11:16;536.57;;;490.50;;
9807;SDS011;4943;52.550;13.462;2023-07-13T00:13:44;552.60;;;505.93;;
9807;SDS011;4943;52.550;13.462;2023-07-13T00:16:13;542.63;;;496.30;;
9807;SDS011;4943;52.550;13.462;2023-07-13T00:18:41;532.00;;;485.10;;
9807;SDS011;4943;52.550;13.462;2023-07-13T00:21:09;522.53;;;476.20;;
9807;SDS011;4943;52.550;13.462;2023-07-13T00:23:38;527.77;;;481.90;;
9807;SDS011;4943;52.550;13.462;2023-07-13T00:26:10;517.60;;;472.03;;
9807;SDS011;4943;52.550;13.462;2023-07-13T00:28:40;524.00;;;478.20;;
9807;SDS011;4943;52.550;13.462;2023-07-13T00:31:08;527.03;;;480.93;;
9807;SDS011;4943;52.550;13.462;2023-07-13T00:33:37;515.00;;;469.63;;
9807;SDS011;4943;52.550;13.462;2023-07-13T00:36:06;521.20;;;475.30;;
9807;SDS011;4943;52.550;13.462;2023-07-13T00:38:37;512.53;;;466.73;;
9807;SDS011;4943;52.550;13.462;2023-07-13T00:41:05;520.97;;;474.53;;
9807;SDS011;4943;52.550;13.462;2023-07-13T00:43:34;521.60;;;475.70;;
9807;SDS011;4943;52.550;13.462;2023-07-13T00:46:17;520.13;;;474.40;;
9807;SDS011;4943;52.550;13.462;2023-07-13T00:48:48;520.10;;;474.27;;
9807;SDS011;4943;52.550;13.462;2023-07-13T00:51:20;527.00;;;481.00;;
9807;SDS011;4943;52.550;13.462;2023-07-13T00:53:53;508.43;;;462.90;;
9807;SDS011;4943;52.550;13.462;2023-07-13T00:56:24;517.33;;;471.50;;
9807;SDS011;4943;52.550;13.462;2023-07-13T00:58:53;500.33;;;454.83;;
9807;SDS011;4943;52.550;13.462;2023-07-13T01:01:22;500.80;;;455.63;;
9807;SDS011;4943;52.550;13.462;2023-07-13T01:03:50;501.80;;;456.40;;
9807;SDS011;4943;52.550;13.462;2023-07-13T01:06:20;509.60;;;463.90;;
9807;SDS011;4943;52.550;13.462;2023-07-13T01:08:48;497.63;;;452.20;;
9807;SDS011;4943;52.550;13.462;2023-07-13T01:11:18;483.90;;;438.90;;
9807;SDS011;4943;52.550;13.462;2023-07-13T01:13:48;495.50;;;450.23;;
9807;SDS011;4943;52.550;13.462;2023-07-13T01:16:19;493.70;;;446.67;;
9807;SDS011;4943;52.550;13.462;2023-07-13T01:18:52;479.43;;;434.83;;
9807;SDS011;4943;52.550;13.462;2023-07-13T01:21:22;494.13;;;449.00;;
9807;SDS011;4943;52.550;13.462;2023-07-13T01:23:50;491.90;;;446.90;;
9807;SDS011;4943;52.550;13.462;2023-07-13T01:26:18;495.87;;;450.73;;
9807;SDS011;4943;52.550;13.462;2023-07-13T01:28:46;479.80;;;435.03;;
9807;SDS011;4943;52.550;13.462;2023-07-13T01:31:14;470.83;;;426.13;;
9807;SDS011;4943;52.550;13.462;2023-07-13T01:33:42;460.63;;;416.40;;
9807;SDS011;4943;52.550;13.462;2023-07-13T01:36:10;487.93;;;443.03;;
9807;SDS011;4943;52.550;13.462;2023-07-13T01:38:41;481.17;;;436.57;;
9807;SDS011;4943;52.550;13.462;2023-07-13T01:41:10;490.30;;;445.23;;
9807;SDS011;4943;52.550;13.462;2023-07-13T01:43:39;480.10;;;435.20;;
9807;SDS011;4943;52.550;13.462;2023-07-13T01:46:07;475.87;;;430.93;;
9807;SDS011;4943;52.550;13.462;2023-07-13T01:48:42;479.97;;;434.87;;
9807;SDS011;4943;52.550;13.462;2023-07-13T01:51:10;492.90;;;447.40;;
9807;SDS011;4943;52.550;13.462;2023-07-13T01:53:38;482.93;;;437.73;;
9807;SDS011;4943;52.550;13.462;2023-07-13T01:56:08;486.00;;;441.07;;
9807;SDS011;4943;52.550;13.462;2023-07-13T01:58:36;468.87;;;424.53;;
9807;SDS011;4943;52.550;13.462;2023-07-13T02:01:05;477.97;;;433.20;;
9807;SDS011;4943;52.550;13.462;2023-07-13T02:03:33;476.67;;;431.90;;
9807;SDS011;4943;52.550;13.462;2023-07-13T02:06:25;477.97;;;433.03;;
9807;SDS011;4943;52.550;13.462;2023-07-13T02:09:17;476.97;;;432.20;;
9807;SDS011;4943;52.550;13.462;2023-07-13T02:11:47;466.73;;;421.80;;
9807;SDS011;4943;52.550;13.462;2023-07-13T02:14:15;486.37;;;441.10;;
9807;SDS011;4943;52.550;13.462;2023-07-13T02:16:43;462.70;;;417.93;;
9807;SDS011;4943;52.550;13.462;2023-07-13T02:19:11;477.17;;;432.50;;
9807;SDS011;4943;52.550;13.462;2023-07-13T02:21:39;487.50;;;442.50;;
9807;SDS011;4943;52.550;13.462;2023-07-13T02:24:07;473.87;;;429.20;;
9807;SDS011;4943;52.550;13.462;2023-07-13T02:26:35;475.77;;;431.20;;
9807;SDS011;4943;52.550;13.462;2023-07-13T02:29:05;457.83;;;414.03;;
9807;SDS011;4943;52.550;13.462;2023-07-13T02:31:33;460.53;;;416.43;;
9807;SDS011;4943;52.550;13.462;2023-07-13T02:34:02;459.63;;;415.37;;
9807;SDS011;4943;52.550;13.462;2023-07-13T02:36:31;452.37;;;408.60;;
9807;SDS011;4943;52.550;13.462;2023-07-13T02:39:00;441.27;;;397.83;;
9807;SDS011;4943;52.550;13.462;2023-07-13T02:41:29;443.03;;;399.47;;
9807;SDS011;4943;52.550;13.462;2023-07-13T02:43:57;450.03;;;406.23;;
9807;SDS011;4943;52.550;13.462;2023-07-13T02:46:31;454.63;;;410.60;;
9807;SDS011;4943;52.550;13.462;2023-07-13T02:49:00;429.70;;;386.43;;
9807;SDS011;4943;52.550;13.462;2023-07-13T02:51:29;452.63;;;408.87;;
9807;SDS011;4943;52.550;13.462;2023-07-13T02:53:59;451.30;;;407.20;;
9807;SDS011;4943;52.550;13.462;2023-07-13T02:56:29;443.90;;;400.30;;
9807;SDS011;4943;52.550;13.462;2023-07-13T02:58:58;442.77;;;398.90;;
9807;SDS011;4943;52.550;13.462;2023-07-13T03:01:26;436.40;;;392.80;;
9807;SDS011;4943;52.550;13.462;2023-07-13T03:03:55;445.07;;;401.27;;
9807;SDS011;4943;52.550;13.462;2023-07-13T03:06:24;440.13;;;396.77;;
9807;SDS011;4943;52.550;13.462;2023-07-13T03:08:52;429.27;;;385.23;;
9807;SDS011;4943;52.550;13.462;2023-07-13T03:11:20;439.93;;;396.50;;
9807;SDS011;4943;52.550;13.462;2023-07-13T03:13:48;437.63;;;394.30;;
9807;SDS011;4943;52.550;13.462;2023-07-13T03:16:16;448.07;;;404.13;;
9807;SDS011;4943;52.550;13.462;2023-07-13T03:18:45;433.60;;;390.00;;
9807;SDS011;4943;52.550;13.462;2023-07-13T03:21:15;446.37;;;402.67;;
9807;SDS011;4943;52.550;13.462;2023-07-13T03:23:44;438.20;;;394.90;;
9807;SDS011;4943;52.550;13.462;2023-07-13T03:26:13;442.73;;;399.13;;
9807;SDS011;4943;52.550;13.462;2023-07-13T03:28:42;424.50;;;381.23;;
9807;SDS011;4943;52.550;13.462;2023-07-13T03:31:12;435.70;;;392.60;;
9807;SDS011;4943;52.550;13.462;2023-07-13T03:33:42;441.83;;;398.30;;
9807;SDS011;4943;52.550;13.462;2023-07-13T03:36:12;435.77;;;392.70;;
9807;SDS011;4943;52.550;13.462;2023-07-13T03:38:43;462.93;;;419.17;;
9807;SDS011;4943;52.550;13.462;2023-07-13T03:41:12;478.37;;;434.07;;
9807;SDS011;4943;52.550;13.462;2023-07-13T03:43:40;471.37;;;427.50;;
9807;SDS011;4943;52.550;13.462;2023-07-13T03:46:09;505.90;;;460.70;;
9807;SDS011;4943;52.550;13.462;2023-07-13T03:48:37;523.10;;;477.80;;
9807;SDS011;4943;52.550;13.462;2023-07-13T03:51:06;525.63;;;480.33;;
9807;SDS011;4943;52.550;13.462;2023-07-13T03:53:37;537.03;;;491.10;;
9807;SDS011;4943;52.550;13.462;2023-07-13T03:56:07;536.07;;;490.37;;
9807;SDS011;4943;52.550;13.462;2023-07-13T03:58:38;544.30;;;498.23;;
9807;SDS011;4943;52.550;13.462;2023-07-13T04:01:07;533.83;;;488.20;;
9807;SDS011;4943;52.550;13.462;2023-07-13T04:03:36;537.57;;;491.90;;
9807;SDS011;4943;52.550;13.462;2023-07-13T04:06:05;545.37;;;499.40;;
9807;SDS011;4943;52.550;13.462;2023-07-13T04:08:36;520.30;;;474.80;;
9807;SDS011;4943;52.550;13.462;2023-07-13T04:11:04;534.40;;;488.60;;
9807;SDS011;4943;52.550;13.462;2023-07-13T04:13:33;553.50;;;507.30;;
9807;SDS011;4943;52.550;13.462;2023-07-13T04:16:02;559.53;;;513.03;;
9807;SDS011;4943;52.550;13.462;2023-07-13T04:18:30;559.00;;;512.60;;
9807;SDS011;4943;52.550;13.462;2023-07-13T04:20:58;562.33;;;515.70;;
9807;SDS011;4943;52.550;13.462;2023-07-13T04:23:26;574.50;;;527.53;;
9807;SDS011;4943;52.550;13.462;2023-07-13T04:25:54;549.63;;;503.63;;
9807;SDS011;4943;52.550;13.462;2023-07-13T04:28:23;560.80;;;514.10;;
9807;SDS011;4943;52.550;13.462;2023-07-13T04:30:54;539.53;;;493.73;;
9807;SDS011;4943;52.550;13.462;2023-07-13T04:33:22;515.67;;;470.63;;
9807;SDS011;4943;52.550;13.462;2023-07-13T04:35:51;517.47;;;472.13;;
9807;SDS011;4943;52.550;13.462;2023-07-13T04:38:23;490.27;;;445.90;;
9807;SDS011;4943;52.550;13.462;2023-07-13T04:40:54;502.00;;;456.87;;
9807;SDS011;4943;52.550;13.462;2023-07-13T04:43:23;497.13;;;452.20;;
9807;SDS011;4943;52.550;13.462;2023-07-13T04:45:53;510.17;;;465.00;;
9807;SDS011;4943;52.550;13.462;2023-07-13T04:48:22;510.30;;;465.17;;
9807;SDS011;4943;52.550;13.462;2023-07-13T04:50:54;498.43;;;453.50;;
9807;SDS011;4943;52.550;13.462;2023-07-13T04:53:23;513.83;;;468.47;;
9807;SDS011;4943;52.550;13.462;2023-07-13T04:55:51;481.97;;;437.43;;
9807;SDS011;4943;52.550;13.462;2023-07-13T04:58:20;477.83;;;433.77;;
9807;SDS011;4943;52.550;13.462;2023-07-13T05:00:48;483.93;;;439.63;;
9807;SDS011;4943;52.550;13.462;2023-07-13T05:03:18;456.57;;;413.17;;
9807;SDS011;4943;52.550;13.462;2023-07-13T05:05:54;485.07;;;440.77;;
9807;SDS011;4943;52.550;13.462;2023-07-13T05:08:23;483.20;;;438.63;;
9807;SDS011;4943;52.550;13.462;2023-07-13T05:10:51;470.20;;;426.50;;
9807;SDS011;4943;52.550;13.462;2023-07-13T05:13:20;468.67;;;425.03;;
9807;SDS011;4943;52.550;13.462;2023-07-13T05:15:57;475.20;;;430.83;;
9807;SDS011;4943;52.550;13.462;2023-07-13T05:18:28;473.23;;;429.27;;
9807;SDS011;4943;52.550;13.462;2023-07-13T05:20:57;471.10;;;427.10;;
9807;SDS011;4943;52.550;13.462;2023-07-13T05:23:26;476.27;;;432.33;;
9807;SDS011;4943;52.550;13.462;2023-07-13T05:25:55;483.60;;;439.33;;
9807;SDS011;4943;52.550;13.462;2023-07-13T05:28:27;492.60;;;448.13;;
9807;SDS011;4943;52.550;13.462;2023-07-13T05:30:56;481.10;;;436.57;;
9807;SDS011;4943;52.550;13.462;2023-07-13T05:33:24;479.90;;;435.63;;
9807;SDS011;4943;52.550;13.462;2023-07-13T05:35:54;483.50;;;438.97;;
9807;SDS011;4943;52.550;13.462;2023-07-13T05:38:22;484.70;;;440.20;;
9807;SDS011;4943;52.550;13.462;2023-07-13T05:40:50;483.60;;;439.67;;
9807;SDS011;4943;52.550;13.462;2023-07-13T05:43:20;486.13;;;441.47;;
9807;SDS011;4943;52.550;13.462;2023-07-13T05:45:49;499.63;;;454.50;;
9807;SDS011;4943;52.550;13.462;2023-07-13T05:48:20;509.87;;;463.87;;
9807;SDS011;4943;52.550;13.462;2023-07-13T05:50:48;487.00;;;442.73;;
9807;SDS011;4943;52.550;13.462;2023-07-13T05:53:18;506.17;;;461.07;;
9807;SDS011;4943;52.550;13.462;2023-07-13T05:55:46;494.93;;;450.10;;
9807;SDS011;4943;52.550;13.462;2023-07-13T05:58:16;496.90;;;452.13;;
9807;SDS011;4943;52.550;13.462;2023-07-13T06:00:45;533.30;;;486.60;;
9807;SDS011;4943;52.550;13.462;2023-07-13T06:03:13;513.27;;;468.13;;
9807;SDS011;4943;52.550;13.462;2023-07-13T06:05:42;515.70;;;470.40;;
9807;SDS011;4943;52.550;13.462;2023-07-13T06:08:10;520.53;;;475.17;;
9807;SDS011;4943;52.550;13.462;2023-07-13T06:10:39;520.57;;;475.07;;
9807;SDS011;4943;52.550;13.462;2023-07-13T06:13:07;511.63;;;466.07;;
9807;SDS011;4943;52.550;13.462;2023-07-13T06:15:36;514.17;;;468.77;;
9807;SDS011;4943;52.550;13.462;2023-07-13T06:18:04;528.73;;;483.10;;
9807;SDS011;4943;52.550;13.462;2023-07-13T06:20:33;521.50;;;476.07;;
9807;SDS011;4943;52.550;13.462;2023-07-13T06:23:01;514.47;;;469.47;;
9807;SDS011;4943;52.550;13.462;2023-07-13T06:25:29;531.90;;;485.83;;
9807;SDS011;4943;52.550;13.462;2023-07-13T06:27:59;523.97;;;478.23;;
9807;SDS011;4943;52.550;13.462;2023-07-13T06:30:28;539.70;;;493.70;;
9807;SDS011;4943;52.550;13.462;2023-07-13T06:32:58;536.90;;;491.07;;
9807;SDS011;4943;52.550;13.462;2023-07-13T06:35:26;514.37;;;469.20;;
9807;SDS011;4943;52.550;13.462;2023-07-13T06:37:54;521.47;;;476.20;;
9807;SDS011;4943;52.550;13.462;2023-07-13T06:40:22;531.43;;;485.53;;
9807;SDS011;4943;52.550;13.462;2023-07-13T06:42:50;536.27;;;490.47;;
9807;SDS011;4943;52.550;13.462;2023-07-13T06:45:20;525.50;;;479.97;;
9807;SDS011;4943;52.550;13.462;2023-07-13T06:47:48;519.50;;;474.30;;
9807;SDS011;4943;52.550;13.462;2023-07-13T06:50:16;527.27;;;481.87;;
9807;SDS011;4943;52.550;13.462;2023-07-13T06:52:44;532.47;;;486.73;;
9807;SDS011;4943;52.550;13.462;2023-07-13T06:55:12;525.30;;;480.10;;
9807;SDS011;4943;52.550;13.462;2023-07-13T06:57:40;542.20;;;496.20;;
9807;SDS011;4943;52.550;13.462;2023-07-13T07:00:10;526.07;;;480.77;;
9807;SDS011;4943;52.550;13.462;2023-07-13T07:02:40;538.87;;;492.83;;
9807;SDS011;4943;52.550;13.462;2023-07-13T07:05:09;523.47;;;477.77;;
9807;SDS011;4943;52.550;13.462;2023-07-13T07:07:37;531.43;;;485.63;;
9807;SDS011;4943;52.550;13.462;2023-07-13T07:10:06;531.40;;;485.67;;
9807;SDS011;4943;52.550;13.462;2023-07-13T07:12:34;547.03;;;501.10;;
9807;SDS011;4943;52.550;13.462;2023-07-13T07:15:03;524.80;;;479.53;;
9807;SDS011;4943;52.550;13.462;2023-07-13T07:17:32;535.50;;;489.60;;
9807;SDS011;4943;52.550;13.462;2023-07-13T07:20:01;535.77;;;490.23;;
9807;SDS011;4943;52.550;13.462;2023-07-13T07:22:30;530.77;;;485.40;;
9807;SDS011;4943;52.550;13.462;2023-07-13T07:24:58;537.47;;;491.67;;
9807;SDS011;4943;52.550;13.462;2023-07-13T07:27:27;547.97;;;501.97;;
9807;SDS011;4943;52.550;13.462;2023-07-13T07:29:58;560.97;;;514.57;;
9807;SDS011;4943;52.550;13.462;2023-07-13T07:32:30;535.10;;;489.40;;
9807;SDS011;4943;52.550;13.462;2023-07-13T07:35:03;552.43;;;506.43;;
9807;SDS011;4943;52.550;13.462;2023-07-13T07:37:31;544.67;;;499.07;;
9807;SDS011;4943;52.550;13.462;2023-07-13T07:40:02;551.33;;;505.53;;
9807;SDS011;4943;52.550;13.462;2023-07-13T07:42:34;546.33;;;500.33;;
9807;SDS011;4943;52.550;13.462;2023-07-13T07:45:02;557.07;;;511.03;;
9807;SDS011;4943;52.550;13.462;2023-07-13T07:47:31;552.03;;;505.43;;
9807;SDS011;4943;52.550;13.462;2023-07-13T07:49:59;546.80;;;500.57;;
9807;SDS011;4943;52.550;13.462;2023-07-13T07:52:28;559.10;;;513.00;;
9807;SDS011;4943;52.550;13.462;2023-07-13T07:54:56;563.83;;;517.57;;
9807;SDS011;4943;52.550;13.462;2023-07-13T07:57:27;585.13;;;538.23;;
9807;SDS011;4943;52.550;13.462;2023-07-13T07:59:59;578.57;;;531.93;;
9807;SDS011;4943;52.550;13.462;2023-07-13T08:02:30;609.63;;;562.03;;
9807;SDS011;4943;52.550;13.462;2023-07-13T08:05:01;592.80;;;545.13;;
9807;SDS011;4943;52.550;13.462;2023-07-13T08:07:34;610.30;;;562.80;;
9807;SDS011;4943;52.550;13.462;2023-07-13T08:10:02;616.30;;;568.33;;
9807;SDS011;4943;52.550;13.462;2023-07-13T08:12:33;629.80;;;581.63;;
9807;SDS011;4943;52.550;13.462;2023-07-13T08:15:05;629.50;;;581.57;;
9807;SDS011;4943;52.550;13.462;2023-07-13T08:17:36;655.47;;;606.53;;
9807;SDS011;4943;52.550;13.462;2023-07-13T08:20:05;666.67;;;617.57;;
9807;SDS011;4943;52.550;13.462;2023-07-13T08:22:35;660.70;;;611.67;;
9807;SDS011;4943;52.550;13.462;2023-07-13T08:25:04;663.90;;;614.90;;
9807;SDS011;4943;52.550;13.462;2023-07-13T08:27:32;663.53;;;614.50;;
9807;SDS011;4943;52.550;13.462;2023-07-13T08:30:00;663.07;;;613.90;;
9807;SDS011;4943;52.550;13.462;2023-07-13T08:32:29;674.03;;;624.63;;
9807;SDS011;4943;52.550;13.462;2023-07-13T08:34:57;687.93;;;637.90;;
9807;SDS011;4943;52.550;13.462;2023-07-13T08:37:26;682.20;;;632.73;;
9807;SDS011;4943;52.550;13.462;2023-07-13T08:39:55;691.37;;;641.47;;
9807;SDS011;4943;52.550;13.462;2023-07-13T08:42:28;703.80;;;653.65;;
9807;SDS011;4943;52.550;13.462;2023-07-13T08:45:04;703.88;;;653.95;;
9807;SDS011;4943;52.550;13.462;2023-07-13T08:47:46;736.65;;;685.08;;
9807;SDS011;4943;52.550;13.462;2023-07-13T08:50:18;733.28;;;682.25;;
9807;SDS011;4943;52.550;13.462;2023-07-13T08:52:50;725.67;;;674.47;;
9807;SDS011;4943;52.550;13.462;2023-07-13T08:55:21;731.28;;;680.10;;
9807;SDS011;4943;52.550;13.462;2023-07-13T08:57:53;726.90;;;675.78;;
9807;SDS011;4943;52.550;13.462;2023-07-13T09:00:32;735.60;;;684.63;;
9807;SDS011;4943;52.550;13.462;2023-07-13T09:03:05;731.80;;;678.50;;
9807;SDS011;4943;52.550;13.462;2023-07-13T09:05:49;714.20;;;663.60;;
9807;SDS011;4943;52.550;13.462;2023-07-13T09:08:27;724.60;;;673.42;;
9807;SDS011;4943;52.550;13.462;2023-07-13T09:11:13;707.20;;;656.37;;
9807;SDS011;4943;52.550;13.462;2023-07-13T09:13:50;695.47;;;645.63;;
9807;SDS011;4943;52.550;13.462;2023-07-13T09:16:26;699.97;;;650.07;;
9807;SDS011;4943;52.550;13.462;2023-07-13T09:18:55;689.97;;;639.97;;
9807;SDS011;4943;52.550;13.462;2023-07-13T09:21:28;689.50;;;639.90;;
9807;SDS011;4943;52.550;13.462;2023-07-13T09:24:01;677.00;;;627.57;;
9807;SDS011;4943;52.550;13.462;2023-07-13T09:26:42;690.83;;;641.13;;
9807;SDS011;4943;52.550;13.462;2023-07-13T09:29:11;681.63;;;632.28;;
9807;SDS011;4943;52.550;13.462;2023-07-13T09:31:44;674.60;;;624.73;;
9807;SDS011;4943;52.550;13.462;2023-07-13T09:34:16;667.43;;;618.17;;
9807;SDS011;4943;52.550;13.462;2023-07-13T09:36:45;669.23;;;620.07;;
9807;SDS011;4943;52.550;13.462;2023-07-13T09:39:14;669.30;;;620.13;;
9807;SDS011;4943;52.550;13.462;2023-07-13T09:41:50;664.37;;;615.30;;
9807;SDS011;4943;52.550;13.462;2023-07-13T09:44:27;654.23;;;605.47;;
9807;SDS011;4943;52.550;13.462;2023-07-13T09:46:58;662.10;;;613.20;;
9807;SDS011;4943;52.550;13.462;2023-07-13T09:49:27;656.83;;;608.10;;
9807;SDS011;4943;52.550;13.462;2023-07-13T09:51:57;655.10;;;606.33;;
9807;SDS011;4943;52.550;13.462;2023-07-13T09:54:28;661.67;;;612.83;;
9807;SDS011;4943;52.550;13.462;2023-07-13T09:56:59;663.67;;;614.73;;
9807;SDS011;4943;52.550;13.462;2023-07-13T09:59:29;673.20;;;623.83;;
9807;SDS011;4943;52.550;13.462;2023-07-13T10:01:59;668.42;;;619.33;;
9807;SDS011;4943;52.550;13.462;2023-07-13T10:04:30;680.70;;;630.97;;
9807;SDS011;4943;52.550;13.462;2023-07-13T10:07:06;686.47;;;637.00;;
9807;SDS011;4943;52.550;13.462;2023-07-13T10:09:54;684.70;;;635.13;;
9807;SDS011;4943;52.550;13.462;2023-07-13T10:12:25;699.77;;;649.67;;
9807;SDS011;4943;52.550;13.462;2023-07-13T10:14:57;692.53;;;642.55;;
9807;SDS011;4943;52.550;13.462;2023-07-13T10:17:47;705.72;;;655.38;;
9807;SDS011;4943;52.550;13.462;2023-07-13T10:20:17;725.28;;;674.42;;
9807;SDS011;4943;52.550;13.462;2023-07-13T10:22:49;746.88;;;695.42;;
9807;SDS011;4943;52.550;13.462;2023-07-13T10:25:30;743.17;;;691.35;;
9807;SDS011;4943;52.550;13.462;2023-07-13T10:28:02;753.00;;;701.08;;
9807;SDS011;4943;52.550;13.462;2023-07-13T10:30:34;764.38;;;712.35;;
9807;SDS011;4943;52.550;13.462;2023-07-13T10:33:09;774.63;;;722.42;;
9807;SDS011;4943;52.550;13.462;2023-07-13T10:35:40;783.45;;;729.47;;
9807;SDS011;4943;52.550;13.462;2023-07-13T10:38:11;777.70;;;725.67;;
9807;SDS011;4943;52.550;13.462;2023-07-13T10:40:44;789.40;;;736.47;;
9807;SDS011;4943;52.550;13.462;2023-07-13T10:43:20;783.45;;;731.17;;
9807;SDS011;4943;52.550;13.462;2023-07-13T10:45:53;780.17;;;727.95;;
9807;SDS011;4943;52.550;13.462;2023-07-13T10:48:22;770.88;;;718.83;;
9807;SDS011;4943;52.550;13.462;2023-07-13T10:50:51;775.38;;;723.17;;
9807;SDS011;4943;52.550;13.462;2023-07-13T10:53:21;765.63;;;713.72;;
9807;SDS011;4943;52.550;13.462;2023-07-13T10:55:56;765.65;;;713.75;;
9807;SDS011;4943;52.550;13.462;2023-07-13T10:58:33;761.22;;;709.13;;
9807;SDS011;4943;52.550;13.462;2023-07-13T11:01:04;756.85;;;705.10;;
9807;SDS011;4943;52.550;13.462;2023-07-13T11:03:37;757.53;;;705.90;;
9807;SDS011;4943;52.550;13.462;2023-07-13T11:06:17;754.05;;;702.00;;
9807;SDS011;4943;52.550;13.462;2023-07-13T11:09:03;761.53;;;709.45;;
9807;SDS011;4943;52.550;13.462;2023-07-13T11:11:46;755.65;;;704.00;;
9807;SDS011;4943;52.550;13.462;2023-07-13T11:14:29;757.47;;;705.75;;
9807;SDS011;4943;52.550;13.462;2023-07-13T11:20:22;749.22;;;697.80;;
9807;SDS011;4943;52.550;13.462;2023-07-13T11:23:08;733.95;;;683.28;;
9807;SDS011;4943;52.550;13.462;2023-07-13T11:25:57;742.35;;;691.10;;
9807;SDS011;4943;52.550;13.462;2023-07-13T11:28:29;729.03;;;678.08;;
9807;SDS011;4943;52.550;13.462;2023-07-13T11:31:02;721.28;;;670.78;;
9807;SDS011;4943;52.550;13.462;2023-07-13T11:33:56;728.65;;;677.40;;
9807;SDS011;4943;52.550;13.462;2023-07-13T11:36:29;743.90;;;692.55;;
9807;SDS011;4943;52.550;13.462;2023-07-13T11:39:03;736.83;;;685.78;;
9807;SDS011;4943;52.550;13.462;2023-07-13T11:41:43;746.67;;;695.60;;
9807;SDS011;4943;52.550;13.462;2023-07-13T11:44:14;749.35;;;698.17;;
9807;SDS011;4943;52.550;13.462;2023-07-13T11:46:46;748.00;;;696.60;;
9807;SDS011;4943;52.550;13.462;2023-07-13T11:49:18;760.60;;;708.80;;
9807;SDS011;4943;52.550;13.462;2023-07-13T11:51:50;749.22;;;697.88;;
9807;SDS011;4943;52.550;13.462;2023-07-13T11:54:26;764.20;;;712.65;;
9807;SDS011;4943;52.550;13.462;2023-07-13T11:56:57;766.38;;;714.67;;
9807;SDS011;4943;52.550;13.462;2023-07-13T11:59:28;767.35;;;715.47;;
9807;SDS011;4943;52.550;13.462;2023-07-13T12:02:00;757.88;;;706.30;;
9807;SDS011;4943;52.550;13.462;2023-07-13T12:04:30;758.25;;;706.72;;
9807;SDS011;4943;52.550;13.462;2023-07-13T12:07:03;746.97;;;695.90;;
9807;SDS011;4943;52.550;13.462;2023-07-13T12:09:35;761.45;;;709.78;;
9807;SDS011;4943;52.550;13.462;2023-07-13T12:12:08;761.08;;;709.47;;
9807;SDS011;4943;52.550;13.462;2023-07-13T12:14:39;760.30;;;708.88;;
9807;SDS011;4943;52.550;13.462;2023-07-13T12:17:15;778.15;;;725.45;;
9807;SDS011;4943;52.550;13.462;2023-07-13T12:19:47;763.15;;;711.55;;
9807;SDS011;4943;52.550;13.462;2023-07-13T12:22:16;758.22;;;706.83;;
9807;SDS011;4943;52.550;13.462;2023-07-13T12:24:46;788.33;;;735.90;;
9807;SDS011;4943;52.550;13.462;2023-07-13T12:27:18;770.50;;;718.63;;
9807;SDS011;4943;52.550;13.462;2023-07-13T12:29:49;767.33;;;715.28;;
9807;SDS011;4943;52.550;13.462;2023-07-13T12:32:21;754.30;;;702.67;;
9807;SDS011;4943;52.550;13.462;2023-07-13T12:34:52;757.58;;;706.13;;
9807;SDS011;4943;52.550;13.462;2023-07-13T12:37:21;764.28;;;709.85;;
9807;SDS011;4943;52.550;13.462;2023-07-13T12:39:51;752.88;;;701.50;;
9807;SDS011;4943;52.550;13.462;2023-07-13T12:42:20;759.15;;;707.33;;
9807;SDS011;4943;52.550;13.462;2023-07-13T12:44:53;761.85;;;710.25;;
9807;SDS011;4943;52.550;13.462;2023-07-13T12:47:25;767.28;;;715.50;;
9807;SDS011;4943;52.550;13.462;2023-07-13T12:49:54;746.83;;;695.67;;
9807;SDS011;4943;52.550;13.462;2023-07-13T12:52:23;750.78;;;699.45;;
9807;SDS011;4943;52.550;13.462;2023-07-13T12:54:58;764.38;;;712.63;;
9807;SDS011;4943;52.550;13.462;2023-07-13T12:57:37;764.45;;;712.78;;
9807;SDS011;4943;52.550;13.462;2023-07-13T13:00:14;769.25;;;717.35;;
9807;SDS011;4943;52.550;13.462;2023-07-13T13:02:53;753.30;;;702.15;;
9807;SDS011;4943;52.550;13.462;2023-07-13T13:05:41;746.33;;;695.38;;
9807;SDS011;4943;52.550;13.462;2023-07-13T13:08:10;753.45;;;702.22;;
9807;SDS011;4943;52.550;13.462;2023-07-13T13:10:39;760.47;;;708.92;;
9807;SDS011;4943;52.550;13.462;2023-07-13T13:13:07;770.95;;;719.25;;
9807;SDS011;4943;52.550;13.462;2023-07-13T13:15:35;758.75;;;707.47;;
9807;SDS011;4943;52.550;13.462;2023-07-13T13:18:08;753.58;;;702.65;;
9807;SDS011;4943;52.550;13.462;2023-07-13T13:20:42;758.75;;;707.38;;
9807;SDS011;4943;52.550;13.462;2023-07-13T13:23:11;764.42;;;712.80;;
9807;SDS011;4943;52.550;13.462;2023-07-13T13:25:44;772.78;;;720.75;;
9807;SDS011;4943;52.550;13.462;2023-07-13T13:28:14;782.40;;;730.35;;
9807;SDS011;4943;52.550;13.462;2023-07-13T13:30:44;774.72;;;722.42;;
9807;SDS011;4943;52.550;13.462;2023-07-13T13:33:15;794.97;;;742.25;;
9807;SDS011;4943;52.550;13.462;2023-07-13T13:35:45;788.13;;;735.90;;
9807;SDS011;4943;52.550;13.462;2023-07-13T13:38:14;782.70;;;730.65;;
9807;SDS011;4943;52.550;13.462;2023-07-13T13:40:44;797.55;;;744.88;;
9807;SDS011;4943;52.550;13.462;2023-07-13T13:43:14;785.75;;;733.75;;
9807;SDS011;4943;52.550;13.462;2023-07-13T13:45:43;795.47;;;743.03;;
9807;SDS011;4943;52.550;13.462;2023-07-13T13:48:17;795.65;;;743.17;;
9807;SDS011;4943;52.550;13.462;2023-07-13T13:50:48;814.58;;;761.22;;
9807;SDS011;4943;52.550;13.462;2023-07-13T13:53:16;815.15;;;761.95;;
9807;SDS011;4943;52.550;13.462;2023-07-13T13:55:44;823.85;;;770.05;;
9807;SDS011;4943;52.550;13.462;2023-07-13T13:58:13;817.65;;;764.03;;
9807;SDS011;4943;52.550;13.462;2023-07-13T14:00:41;828.65;;;775.33;;
9807;SDS011;4943;52.550;13.462;2023-07-13T14:03:13;838.60;;;784.47;;
9807;SDS011;4943;52.550;13.462;2023-07-13T14:05:46;832.00;;;778.50;;
9807;SDS011;4943;52.550;13.462;2023-07-13T14:08:15;831.13;;;777.40;;
9807;SDS011;4943;52.550;13.462;2023-07-13T14:10:45;831.60;;;777.75;;
9807;SDS011;4943;52.550;13.462;2023-07-13T14:13:17;835.00;;;780.88;;
9807;SDS011;4943;52.550;13.462;2023-07-13T14:15:46;836.65;;;782.28;;
9807;SDS011;4943;52.550;13.462;2023-07-13T14:18:15;840.10;;;785.70;;
9807;SDS011;4943;52.550;13.462;2023-07-13T14:20:46;836.42;;;782.75;;
9807;SDS011;4943;52.550;13.462;2023-07-13T14:23:16;832.67;;;779.20;;
9807;SDS011;4943;52.550;13.462;2023-07-13T14:25:45;840.65;;;786.85;;
9807;SDS011;4943;52.550;13.462;2023-07-13T14:28:22;826.72;;;773.42;;
9807;SDS011;4943;52.550;13.462;2023-07-13T14:30:51;825.60;;;772.33;;
9807;SDS011;4943;52.550;13.462;2023-07-13T14:33:21;826.17;;;772.40;;